Africa, Pennsylvania
Current Conditions -  °F | °C
As of 8:53 AM on Friday 28 Nov 2014 (Local Time) from KHGR Reporting Station
Few Clouds Few Clouds  
Wind Chill: 21°   Ceiling: Unl
Heat Index: 32°   Visibility: 10mi
Dew Point: 18°   Wind: 16mph
Humidity: 56%   Direction: 320°NW
Pressure: 30.28"   Gusts: 24mph
Location:  39.8035°N, 77.9346°W
Report Text: KHGR 281353Z 32014G21KT 10SM FEW044 00/M08 A3028 RMK AO2 SLP270 T00001078
Loading
Personal Weather Stations






























Interactive Weather Map New forecast layout! Learn more

10-Day Weather Forecast

Advertisements
Track Severe Weather on mobile